sensor_id;sensor_type;location;lat;lon;timestamp;pressure;altitude;pressure_sealevel;temperature;humidity
13734;BME280;43298;52.560;13.508;2024-02-15T00:00:15;99810.31;;;9.51;100.00
13734;BME280;43298;52.560;13.508;2024-02-15T00:02:43;99802.50;;;9.53;100.00
13734;BME280;43298;52.560;13.508;2024-02-15T00:05:11;99798.25;;;9.52;100.00
13734;BME280;43298;52.560;13.508;2024-02-15T00:07:37;99800.69;;;9.55;100.00
13734;BME280;43298;52.560;13.508;2024-02-15T00:10:04;99796.41;;;9.54;100.00
13734;BME280;43298;52.560;13.508;2024-02-15T00:12:30;99795.69;;;9.52;100.00
13734;BME280;43298;52.560;13.508;2024-02-15T00:14:56;99791.41;;;9.51;100.00
13734;BME280;43298;52.560;13.508;2024-02-15T00:17:25;99787.25;;;9.48;100.00
13734;BME280;43298;52.560;13.508;2024-02-15T00:19:51;99782.78;;;9.52;100.00
13734;BME280;43298;52.560;13.508;2024-02-15T00:22:17;99783.75;;;9.49;100.00
13734;BME280;43298;52.560;13.508;2024-02-15T00:24:43;99781.28;;;9.48;100.00
13734;BME280;43298;52.560;13.508;2024-02-15T00:27:10;99773.34;;;9.51;100.00
13734;BME280;43298;52.560;13.508;2024-02-15T00:29:36;99776.00;;;9.49;100.00
13734;BME280;43298;52.560;13.508;2024-02-15T00:32:02;99773.34;;;9.51;100.00
13734;BME280;43298;52.560;13.508;2024-02-15T00:34:31;99763.03;;;9.51;100.00
13734;BME280;43298;52.560;13.508;2024-02-15T00:36:57;99769.88;;;9.52;100.00
13734;BME280;43298;52.560;13.508;2024-02-15T00:39:23;99763.78;;;9.53;100.00
13734;BME280;43298;52.560;13.508;2024-02-15T00:41:49;99759.53;;;9.52;100.00
13734;BME280;43298;52.560;13.508;2024-02-15T00:44:15;99759.53;;;9.52;100.00
13734;BME280;43298;52.560;13.508;2024-02-15T00:46:41;99762.13;;;9.52;100.00
13734;BME280;43298;52.560;13.508;2024-02-15T00:49:07;99756.19;;;9.50;100.00
13734;BME280;43298;52.560;13.508;2024-02-15T00:51:34;99764.72;;;9.52;100.00
13734;BME280;43298;52.560;13.508;2024-02-15T00:54:01;99755.34;;;9.49;100.00
13734;BME280;43298;52.560;13.508;2024-02-15T00:56:27;99765.59;;;9.51;100.00
13734;BME280;43298;52.560;13.508;2024-02-15T00:58:55;99756.03;;;9.53;100.00
13734;BME280;43298;52.560;13.508;2024-02-15T01:01:22;99755.88;;;9.56;100.00
13734;BME280;43298;52.560;13.508;2024-02-15T01:03:48;99743.06;;;9.54;100.00
13734;BME280;43298;52.560;13.508;2024-02-15T01:06:14;99741.31;;;9.55;100.00
13734;BME280;43298;52.560;13.508;2024-02-15T01:08:39;99739.47;;;9.57;100.00
13734;BME280;43298;52.560;13.508;2024-02-15T01:11:05;99732.66;;;9.56;100.00
13734;BME280;43298;52.560;13.508;2024-02-15T01:13:31;99726.56;;;9.57;100.00
13734;BME280;43298;52.560;13.508;2024-02-15T01:15:57;99729.31;;;9.54;100.00
13734;BME280;43298;52.560;13.508;2024-02-15T01:18:23;99727.56;;;9.54;100.00
13734;BME280;43298;52.560;13.508;2024-02-15T01:20:49;99719.84;;;9.54;100.00
13734;BME280;43298;52.560;13.508;2024-02-15T01:23:15;99723.91;;;9.58;100.00
13734;BME280;43298;52.560;13.508;2024-02-15T01:25:41;99720.50;;;9.58;100.00
13734;BME280;43298;52.560;13.508;2024-02-15T01:28:06;99710.94;;;9.60;100.00
13734;BME280;43298;52.560;13.508;2024-02-15T01:30:32;99707.19;;;9.65;100.00
13734;BME280;43298;52.560;13.508;2024-02-15T01:32:58;99708.91;;;9.65;100.00
13734;BME280;43298;52.560;13.508;2024-02-15T01:35:26;99713.34;;;9.63;100.00
13734;BME280;43298;52.560;13.508;2024-02-15T01:37:52;99708.75;;;9.68;100.00
13734;BME280;43298;52.560;13.508;2024-02-15T01:40:18;99705.25;;;9.69;100.00
13734;BME280;43298;52.560;13.508;2024-02-15T01:42:47;99702.66;;;9.69;100.00
13734;BME280;43298;52.560;13.508;2024-02-15T01:45:16;99698.44;;;9.68;100.00
13734;BME280;43298;52.560;13.508;2024-02-15T01:47:42;99696.69;;;9.68;100.00
13734;BME280;43298;52.560;13.508;2024-02-15T01:50:12;99697.63;;;9.67;100.00
13734;BME280;43298;52.560;13.508;2024-02-15T01:52:40;99694.84;;;9.70;100.00
13734;BME280;43298;52.560;13.508;2024-02-15T01:55:06;99690.59;;;9.69;100.00
13734;BME280;43298;52.560;13.508;2024-02-15T01:57:35;99682.94;;;9.68;100.00
13734;BME280;43298;52.560;13.508;2024-02-15T02:00:02;99683.03;;;9.66;100.00
13734;BME280;43298;52.560;13.508;2024-02-15T02:02:31;99675.97;;;9.70;100.00
13734;BME280;43298;52.560;13.508;2024-02-15T02:04:58;99677.63;;;9.71;100.00
13734;BME280;43298;52.560;13.508;2024-02-15T02:07:24;99676.84;;;9.69;100.00
13734;BME280;43298;52.560;13.508;2024-02-15T02:09:50;99671.53;;;9.72;100.00
13734;BME280;43298;52.560;13.508;2024-02-15T02:12:15;99662.13;;;9.71;100.00
13734;BME280;43298;52.560;13.508;2024-02-15T02:14:42;99659.63;;;9.69;100.00
13734;BME280;43298;52.560;13.508;2024-02-15T02:17:12;99660.47;;;9.70;100.00
13734;BME280;43298;52.560;13.508;2024-02-15T02:19:39;99654.47;;;9.69;100.00
13734;BME280;43298;52.560;13.508;2024-02-15T02:22:06;99646.81;;;9.68;100.00
13734;BME280;43298;52.560;13.508;2024-02-15T02:25:05;99651.97;;;9.68;100.00
13734;BME280;43298;52.560;13.508;2024-02-15T02:27:32;99652.91;;;9.67;100.00
13734;BME280;43298;52.560;13.508;2024-02-15T02:29:58;99652.66;;;9.71;100.00
13734;BME280;43298;52.560;13.508;2024-02-15T02:32:33;99654.47;;;9.69;100.00
13734;BME280;43298;52.560;13.508;2024-02-15T02:35:00;99648.47;;;9.69;100.00
13734;BME280;43298;52.560;13.508;2024-02-15T02:37:26;99650.16;;;9.70;100.00
13734;BME280;43298;52.560;13.508;2024-02-15T02:39:52;99646.66;;;9.71;100.00
13734;BME280;43298;52.560;13.508;2024-02-15T02:42:18;99644.81;;;9.73;100.00
13734;BME280;43298;52.560;13.508;2024-02-15T02:44:44;99631.84;;;9.74;100.00
13734;BME280;43298;52.560;13.508;2024-02-15T02:47:10;99643.06;;;9.73;100.00
13734;BME280;43298;52.560;13.508;2024-02-15T02:49:36;99640.31;;;9.76;100.00
13734;BME280;43298;52.560;13.508;2024-02-15T02:52:03;99630.91;;;9.75;100.00
13734;BME280;43298;52.560;13.508;2024-02-15T02:54:29;99628.31;;;9.75;100.00
13734;BME280;43298;52.560;13.508;2024-02-15T02:56:55;99631.63;;;9.77;100.00
13734;BME280;43298;52.560;13.508;2024-02-15T02:59:21;99625.66;;;9.77;100.00
13734;BME280;43298;52.560;13.508;2024-02-15T03:01:47;99630.81;;;9.77;100.00
13734;BME280;43298;52.560;13.508;2024-02-15T03:04:15;99622.16;;;9.78;100.00
13734;BME280;43298;52.560;13.508;2024-02-15T03:06:44;99617.00;;;9.78;100.00
13734;BME280;43298;52.560;13.508;2024-02-15T03:09:11;99621.31;;;9.77;100.00
13734;BME280;43298;52.560;13.508;2024-02-15T03:11:39;99622.00;;;9.81;100.00
13734;BME280;43298;52.560;13.508;2024-02-15T03:14:05;99613.41;;;9.80;100.00
13734;BME280;43298;52.560;13.508;2024-02-15T03:16:32;99611.66;;;9.81;100.00
13734;BME280;43298;52.560;13.508;2024-02-15T03:18:58;99610.81;;;9.80;100.00
13734;BME280;43298;52.560;13.508;2024-02-15T03:21:24;99602.91;;;9.83;100.00
13734;BME280;43298;52.560;13.508;2024-02-15T03:23:51;99598.66;;;9.82;100.00
13734;BME280;43298;52.560;13.508;2024-02-15T03:26:29;99596.91;;;9.83;100.00
13734;BME280;43298;52.560;13.508;2024-02-15T03:28:59;99595.25;;;9.82;100.00
13734;BME280;43298;52.560;13.508;2024-02-15T03:31:25;99595.16;;;9.83;100.00
13734;BME280;43298;52.560;13.508;2024-02-15T03:33:51;99599.47;;;9.83;100.00
13734;BME280;43298;52.560;13.508;2024-02-15T03:36:17;99613.16;;;9.85;100.00
13734;BME280;43298;52.560;13.508;2024-02-15T03:38:45;99613.16;;;9.85;100.00
13734;BME280;43298;52.560;13.508;2024-02-15T03:41:12;99608.81;;;9.85;100.00
13734;BME280;43298;52.560;13.508;2024-02-15T03:43:38;99612.13;;;9.87;100.00
13734;BME280;43298;52.560;13.508;2024-02-15T03:46:04;99614.72;;;9.87;100.00
13734;BME280;43298;52.560;13.508;2024-02-15T03:48:30;99611.31;;;9.87;100.00
13734;BME280;43298;52.560;13.508;2024-02-15T03:50:57;99612.06;;;9.89;100.00
13734;BME280;43298;52.560;13.508;2024-02-15T03:53:24;99606.88;;;9.89;100.00
13734;BME280;43298;52.560;13.508;2024-02-15T03:55:49;99606.81;;;9.90;100.00
13734;BME280;43298;52.560;13.508;2024-02-15T03:58:19;99599.13;;;9.89;100.00
13734;BME280;43298;52.560;13.508;2024-02-15T04:00:45;99603.47;;;9.88;100.00
13734;BME280;43298;52.560;13.508;2024-02-15T04:03:11;99590.66;;;9.87;100.00
13734;BME280;43298;52.560;13.508;2024-02-15T04:05:37;99599.13;;;9.89;100.00
13734;BME280;43298;52.560;13.508;2024-02-15T04:08:04;99594.91;;;9.88;100.00
13734;BME280;43298;52.560;13.508;2024-02-15T04:10:31;99590.56;;;9.88;100.00
13734;BME280;43298;52.560;13.508;2024-02-15T04:12:56;99595.72;;;9.88;100.00
13734;BME280;43298;52.560;13.508;2024-02-15T04:15:24;99590.56;;;9.88;100.00
13734;BME280;43298;52.560;13.508;2024-02-15T04:17:50;99594.81;;;9.89;100.00
13734;BME280;43298;52.560;13.508;2024-02-15T04:20:22;99592.97;;;9.91;100.00
13734;BME280;43298;52.560;13.508;2024-02-15T04:22:48;99593.03;;;9.90;100.00
13734;BME280;43298;52.560;13.508;2024-02-15T04:25:16;99583.56;;;9.90;100.00
13734;BME280;43298;52.560;13.508;2024-02-15T04:27:45;99589.41;;;9.94;100.00
13734;BME280;43298;52.560;13.508;2024-02-15T04:30:15;99597.31;;;9.91;100.00
13734;BME280;43298;52.560;13.508;2024-02-15T04:32:44;99604.13;;;9.92;100.00
13734;BME280;43298;52.560;13.508;2024-02-15T04:35:10;99597.31;;;9.91;100.00
13734;BME280;43298;52.560;13.508;2024-02-15T04:37:37;99590.47;;;9.90;100.00
13734;BME280;43298;52.560;13.508;2024-02-15T04:40:05;99590.47;;;9.90;100.00
13734;BME280;43298;52.560;13.508;2024-02-15T04:42:36;99583.47;;;9.92;100.00
13734;BME280;43298;52.560;13.508;2024-02-15T04:45:06;99588.66;;;9.92;100.00
13734;BME280;43298;52.560;13.508;2024-02-15T04:47:34;99595.47;;;9.93;100.00
13734;BME280;43298;52.560;13.508;2024-02-15T04:50:00;99591.22;;;9.92;100.00
13734;BME280;43298;52.560;13.508;2024-02-15T04:52:26;99585.13;;;9.93;100.00
13734;BME280;43298;52.560;13.508;2024-02-15T04:54:52;99579.97;;;9.93;100.00
13734;BME280;43298;52.560;13.508;2024-02-15T04:57:20;99580.13;;;9.90;100.00
13734;BME280;43298;52.560;13.508;2024-02-15T04:59:46;99579.16;;;9.92;100.00
13734;BME280;43298;52.560;13.508;2024-02-15T05:02:14;99574.72;;;9.94;100.00
13734;BME280;43298;52.560;13.508;2024-02-15T05:04:39;99579.06;;;9.94;100.00
13734;BME280;43298;52.560;13.508;2024-02-15T05:07:09;99575.31;;;9.99;100.00
13734;BME280;43298;52.560;13.508;2024-02-15T05:09:35;99578.88;;;9.97;100.00
13734;BME280;43298;52.560;13.508;2024-02-15T05:12:02;99571.03;;;9.98;100.00
13734;BME280;43298;52.560;13.508;2024-02-15T05:14:28;99573.28;;;10.04;100.00
13734;BME280;43298;52.560;13.508;2024-02-15T05:16:54;99575.81;;;10.06;100.00
13734;BME280;43298;52.560;13.508;2024-02-15T05:19:20;99586.84;;;10.08;100.00
13734;BME280;43298;52.560;13.508;2024-02-15T05:21:46;99581.81;;;10.06;100.00
13734;BME280;43298;52.560;13.508;2024-02-15T05:24:16;99579.28;;;10.05;100.00
13734;BME280;43298;52.560;13.508;2024-02-15T05:26:45;99574.69;;;10.10;100.00
13734;BME280;43298;52.560;13.508;2024-02-15T05:29:14;99573.78;;;10.11;100.00
13734;BME280;43298;52.560;13.508;2024-02-15T05:31:41;99570.28;;;10.12;100.00
13734;BME280;43298;52.560;13.508;2024-02-15T05:34:07;99569.91;;;10.18;100.00
13734;BME280;43298;52.560;13.508;2024-02-15T05:36:34;99566.44;;;10.19;100.00
13734;BME280;43298;52.560;13.508;2024-02-15T05:39:00;99563.94;;;10.17;100.00
13734;BME280;43298;52.560;13.508;2024-02-15T05:41:28;99558.56;;;10.20;100.00
13734;BME280;43298;52.560;13.508;2024-02-15T05:43:55;99559.41;;;10.21;100.00
13734;BME280;43298;52.560;13.508;2024-02-15T05:46:23;99553.22;;;10.23;100.00
13734;BME280;43298;52.560;13.508;2024-02-15T05:48:50;99554.91;;;10.24;100.00
13734;BME280;43298;52.560;13.508;2024-02-15T05:51:17;99563.56;;;10.23;100.00
13734;BME280;43298;52.560;13.508;2024-02-15T05:53:43;99552.31;;;10.24;100.00
13734;BME280;43298;52.560;13.508;2024-02-15T05:56:09;99551.31;;;10.27;100.00
13734;BME280;43298;52.560;13.508;2024-02-15T05:58:39;99557.19;;;10.29;100.00
13734;BME280;43298;52.560;13.508;2024-02-15T06:01:08;99555.34;;;10.31;100.00
13734;BME280;43298;52.560;13.508;2024-02-15T06:03:38;99545.88;;;10.31;100.00
13734;BME280;43298;52.560;13.508;2024-02-15T06:06:06;99552.69;;;10.32;100.00
13734;BME280;43298;52.560;13.508;2024-02-15T06:08:36;99560.53;;;10.31;100.00
13734;BME280;43298;52.560;13.508;2024-02-15T06:11:03;99553.72;;;10.30;100.00
13734;BME280;43298;52.560;13.508;2024-02-15T06:13:29;99551.84;;;10.32;100.00
13734;BME280;43298;52.560;13.508;2024-02-15T06:15:56;99550.47;;;10.26;100.00
13734;BME280;43298;52.560;13.508;2024-02-15T06:18:28;99548.72;;;10.27;100.00
13734;BME280;43298;52.560;13.508;2024-02-15T06:20:55;99543.38;;;10.30;100.00
13734;BME280;43298;52.560;13.508;2024-02-15T06:23:28;99546.84;;;10.29;100.00
13734;BME280;43298;52.560;13.508;2024-02-15T06:25:55;99551.22;;;10.28;100.00
13734;BME280;43298;52.560;13.508;2024-02-15T06:28:23;99550.28;;;10.29;100.00
13734;BME280;43298;52.560;13.508;2024-02-15T06:31:09;99551.22;;;10.28;100.00
13734;BME280;43298;52.560;13.508;2024-02-15T06:33:53;99554.81;;;10.26;100.00
13734;BME280;43298;52.560;13.508;2024-02-15T06:36:47;99561.63;;;10.27;100.00
13734;BME280;43298;52.560;13.508;2024-02-15T06:39:32;99566.81;;;10.27;100.00
13734;BME280;43298;52.560;13.508;2024-02-15T06:42:14;99562.34;;;10.29;100.00
13734;BME280;43298;52.560;13.508;2024-02-15T06:44:47;99564.03;;;10.30;100.00
13734;BME280;43298;52.560;13.508;2024-02-15T06:47:14;99564.03;;;10.30;100.00
13734;BME280;43298;52.560;13.508;2024-02-15T06:49:45;99563.03;;;10.32;100.00
13734;BME280;43298;52.560;13.508;2024-02-15T06:52:11;99561.91;;;10.36;100.00
13734;BME280;43298;52.560;13.508;2024-02-15T06:54:38;99560.97;;;10.37;100.00
13734;BME280;43298;52.560;13.508;2024-02-15T06:57:05;99570.31;;;10.40;100.00
13734;BME280;43298;52.560;13.508;2024-02-15T06:59:32;99570.41;;;10.38;100.00
13734;BME280;43298;52.560;13.508;2024-02-15T07:01:59;99568.72;;;10.37;100.00
13734;BME280;43298;52.560;13.508;2024-02-15T07:04:25;99574.66;;;10.39;100.00
13734;BME280;43298;52.560;13.508;2024-02-15T07:06:54;99578.72;;;10.43;100.00
13734;BME280;43298;52.560;13.508;2024-02-15T07:09:21;99579.75;;;10.41;100.00
13734;BME280;43298;52.560;13.508;2024-02-15T07:11:53;99573.47;;;10.45;100.00
13734;BME280;43298;52.560;13.508;2024-02-15T07:14:19;99574.94;;;10.49;100.00
13734;BME280;43298;52.560;13.508;2024-02-15T07:16:49;99567.19;;;10.49;100.00
13734;BME280;43298;52.560;13.508;2024-02-15T07:19:16;99563.56;;;10.51;100.00
13734;BME280;43298;52.560;13.508;2024-02-15T07:21:43;99562.56;;;10.54;100.00
13734;BME280;43298;52.560;13.508;2024-02-15T07:24:10;99570.31;;;10.54;100.00
13734;BME280;43298;52.560;13.508;2024-02-15T07:26:36;99566.72;;;10.56;100.00
13734;BME280;43298;52.560;13.508;2024-02-15T07:29:02;99570.97;;;10.57;100.00
13734;BME280;43298;52.560;13.508;2024-02-15T07:31:32;99568.38;;;10.57;100.00
13734;BME280;43298;52.560;13.508;2024-02-15T07:33:59;99574.19;;;10.61;100.00
13734;BME280;43298;52.560;13.508;2024-02-15T07:36:25;99566.25;;;10.64;100.00
13734;BME280;43298;52.560;13.508;2024-02-15T07:38:53;99569.50;;;10.67;100.00
13734;BME280;43298;52.560;13.508;2024-02-15T07:41:22;99566.81;;;10.69;100.00
13734;BME280;43298;52.560;13.508;2024-02-15T07:43:49;99571.91;;;10.70;100.00
13734;BME280;43298;52.560;13.508;2024-02-15T07:46:16;99569.59;;;10.66;100.00
13734;BME280;43298;52.560;13.508;2024-02-15T07:48:43;99579.75;;;10.69;100.00
13734;BME280;43298;52.560;13.508;2024-02-15T07:51:17;99583.25;;;10.68;100.00
13734;BME280;43298;52.560;13.508;2024-02-15T07:53:44;99579.75;;;10.69;100.00
13734;BME280;43298;52.560;13.508;2024-02-15T07:56:11;99573.47;;;10.73;100.00
13734;BME280;43298;52.560;13.508;2024-02-15T07:58:44;99574.75;;;10.80;100.00
13734;BME280;43298;52.560;13.508;2024-02-15T08:01:16;99574.38;;;10.86;100.00
13734;BME280;43298;52.560;13.508;2024-02-15T08:03:42;99570.47;;;10.93;100.00
13734;BME280;43298;52.560;13.508;2024-02-15T08:06:15;99566.78;;;10.97;100.00
13734;BME280;43298;52.560;13.508;2024-02-15T08:08:46;99566.31;;;11.04;100.00
13734;BME280;43298;52.560;13.508;2024-02-15T08:11:16;99569.56;;;11.08;100.00
13734;BME280;43298;52.560;13.508;2024-02-15T08:13:50;99568.97;;;11.17;100.00
13734;BME280;43298;52.560;13.508;2024-02-15T08:16:21;99569.53;;;11.22;100.00
13734;BME280;43298;52.560;13.508;2024-02-15T08:18:53;99566.94;;;11.22;100.00
13734;BME280;43298;52.560;13.508;2024-02-15T08:21:30;99566.81;;;11.23;100.00
13734;BME280;43298;52.560;13.508;2024-02-15T08:24:00;99566.63;;;11.26;100.00
13734;BME280;43298;52.560;13.508;2024-02-15T08:26:26;99571.00;;;11.26;100.00
13734;BME280;43298;52.560;13.508;2024-02-15T08:28:52;99576.88;;;11.28;100.00
13734;BME280;43298;52.560;13.508;2024-02-15T08:31:18;99579.19;;;11.32;100.00
13734;BME280;43298;52.560;13.508;2024-02-15T08:33:45;99582.63;;;11.33;100.00
13734;BME280;43298;52.560;13.508;2024-02-15T08:36:12;99581.59;;;11.35;100.00
13734;BME280;43298;52.560;13.508;2024-02-15T08:38:39;99589.16;;;11.38;100.00
13734;BME280;43298;52.560;13.508;2024-02-15T08:41:06;99585.44;;;11.42;100.00
13734;BME280;43298;52.560;13.508;2024-02-15T08:43:32;99589.59;;;11.45;100.00
13734;BME280;43298;52.560;13.508;2024-02-15T08:45:58;99590.34;;;11.47;100.00
13734;BME280;43298;52.560;13.508;2024-02-15T08:48:25;99595.72;;;11.44;100.00
13734;BME280;43298;52.560;13.508;2024-02-15T08:50:52;99599.94;;;11.45;100.00
13734;BME280;43298;52.560;13.508;2024-02-15T08:53:17;99593.94;;;11.44;100.00
13734;BME280;43298;52.560;13.508;2024-02-15T08:55:45;99584.59;;;11.42;100.00
13734;BME280;43298;52.560;13.508;2024-02-15T08:58:11;99584.41;;;11.45;100.00
13734;BME280;43298;52.560;13.508;2024-02-15T09:00:37;99590.34;;;11.47;100.00
13734;BME280;43298;52.560;13.508;2024-02-15T09:03:10;99586.53;;;11.52;100.00
13734;BME280;43298;52.560;13.508;2024-02-15T09:05:36;99599.56;;;11.51;100.00
13734;BME280;43298;52.560;13.508;2024-02-15T09:08:02;99599.38;;;11.54;100.00
13734;BME280;43298;52.560;13.508;2024-02-15T09:10:30;99599.16;;;11.57;100.00
13734;BME280;43298;52.560;13.508;2024-02-15T09:12:56;99602.34;;;11.62;100.00
13734;BME280;43298;52.560;13.508;2024-02-15T09:15:22;99594.47;;;11.63;100.00
13734;BME280;43298;52.560;13.508;2024-02-15T09:17:51;99597.69;;;11.67;100.00
13734;BME280;43298;52.560;13.508;2024-02-15T09:20:23;99601.00;;;11.69;100.00
13734;BME280;43298;52.560;13.508;2024-02-15T09:22:54;99597.09;;;11.76;100.00
13734;BME280;43298;52.560;13.508;2024-02-15T09:25:22;99600.97;;;11.83;100.00
13734;BME280;43298;52.560;13.508;2024-02-15T09:27:53;99601.91;;;11.94;100.00
13734;BME280;43298;52.560;13.508;2024-02-15T09:30:22;99607.22;;;12.05;100.00
13734;BME280;43298;52.560;13.508;2024-02-15T09:32:50;99601.53;;;12.13;100.00
13734;BME280;43298;52.560;13.508;2024-02-15T09:35:17;99608.06;;;12.18;100.00
13734;BME280;43298;52.560;13.508;2024-02-15T09:37:47;99611.81;;;12.27;100.00
13734;BME280;43298;52.560;13.508;2024-02-15T09:40:17;99623.34;;;12.23;100.00
13734;BME280;43298;52.560;13.508;2024-02-15T09:42:44;99626.53;;;12.27;100.00
13734;BME280;43298;52.560;13.508;2024-02-15T09:45:13;99643.66;;;12.17;100.00
13734;BME280;43298;52.560;13.508;2024-02-15T09:47:41;99650.78;;;12.13;100.00
13734;BME280;43298;52.560;13.508;2024-02-15T09:50:11;99669.31;;;12.07;100.00
13734;BME280;43298;52.560;13.508;2024-02-15T09:52:50;99673.97;;;12.02;100.00
13734;BME280;43298;52.560;13.508;2024-02-15T09:55:17;99692.94;;;12.02;100.00
13734;BME280;43298;52.560;13.508;2024-02-15T09:57:47;99704.03;;;12.04;100.00
13734;BME280;43298;52.560;13.508;2024-02-15T10:00:13;99709.19;;;12.04;100.00
13734;BME280;43298;52.560;13.508;2024-02-15T10:02:41;99717.16;;;12.01;100.00
13734;BME280;43298;52.560;13.508;2024-02-15T10:05:10;99719.13;;;11.98;100.00
13734;BME280;43298;52.560;13.508;2024-02-15T10:07:44;99727.00;;;11.96;100.00
13734;BME280;43298;52.560;13.508;2024-02-15T10:10:21;99735.72;;;11.95;100.00
13734;BME280;43298;52.560;13.508;2024-02-15T10:12:51;99756.34;;;11.97;100.00
13734;BME280;43298;52.560;13.508;2024-02-15T10:15:39;99751.88;;;11.99;100.00
13734;BME280;43298;52.560;13.508;2024-02-15T10:18:10;99759.66;;;11.99;100.00
13734;BME280;43298;52.560;13.508;2024-02-15T10:20:38;99763.34;;;12.09;100.00
13734;BME280;43298;52.560;13.508;2024-02-15T10:23:11;99763.69;;;12.17;100.00
13734;BME280;43298;52.560;13.508;2024-02-15T10:25:39;99766.50;;;12.27;100.00
13734;BME280;43298;52.560;13.508;2024-02-15T10:30:40;99772.84;;;12.62;100.00
13734;BME280;43298;52.560;13.508;2024-02-15T10:33:09;99773.50;;;12.65;100.00
13734;BME280;43298;52.560;13.508;2024-02-15T10:35:35;99778.25;;;12.71;100.00
13734;BME280;43298;52.560;13.508;2024-02-15T10:38:10;99781.50;;;12.75;100.00
13734;BME280;43298;52.560;13.508;2024-02-15T10:40:40;99786.72;;;12.87;100.00
13734;BME280;43298;52.560;13.508;2024-02-15T10:43:09;99787.13;;;12.94;100.00
13734;BME280;43298;52.560;13.508;2024-02-15T10:45:39;99808.63;;;12.96;100.00
13734;BME280;43298;52.560;13.508;2024-02-15T10:48:09;99820.59;;;12.98;100.00
13734;BME280;43298;52.560;13.508;2024-02-15T10:50:36;99832.28;;;12.91;100.00
13734;BME280;43298;52.560;13.508;2024-02-15T10:56:10;99859.69;;;12.95;100.00
13734;BME280;43298;52.560;13.508;2024-02-15T10:58:56;99864.25;;;13.18;100.00
13734;BME280;43298;52.560;13.508;2024-02-15T11:01:27;99869.03;;;13.37;100.00
13734;BME280;43298;52.560;13.508;2024-02-15T11:04:00;99885.47;;;13.37;100.00
13734;BME280;43298;52.560;13.508;2024-02-15T11:06:30;99888.38;;;13.45;100.00
13734;BME280;43298;52.560;13.508;2024-02-15T11:08:59;99901.66;;;13.53;100.00
13734;BME280;43298;52.560;13.508;2024-02-15T11:11:27;99911.06;;;13.56;100.00
13734;BME280;43298;52.560;13.508;2024-02-15T11:14:29;99924.06;;;13.68;100.00
13734;BME280;43298;52.560;13.508;2024-02-15T11:16:56;99933.00;;;13.64;100.00
13734;BME280;43298;52.560;13.508;2024-02-15T11:22:01;99944.09;;;13.79;100.00
13734;BME280;43298;52.560;13.508;2024-02-15T11:24:32;99947.00;;;13.87;100.00
13734;BME280;43298;52.560;13.508;2024-02-15T11:27:03;99958.25;;;13.75;100.00
13734;BME280;43298;52.560;13.508;2024-02-15T11:32:41;99988.88;;;13.57;100.00
13734;BME280;43298;52.560;13.508;2024-02-15T11:35:16;99986.59;;;13.53;100.00
13734;BME280;43298;52.560;13.508;2024-02-15T11:43:07;99998.34;;;13.58;100.00
13734;BME280;43298;52.560;13.508;2024-02-15T11:45:34;100005.22;;;13.72;100.00
13734;BME280;43298;52.560;13.508;2024-02-15T11:48:10;100002.31;;;13.76;100.00
13734;BME280;43298;52.560;13.508;2024-02-15T11:50:38;100003.25;;;13.75;100.00
13734;BME280;43298;52.560;13.508;2024-02-15T11:53:06;100003.69;;;13.82;100.00
13734;BME280;43298;52.560;13.508;2024-02-15T11:55:37;100007.31;;;13.79;100.00
13734;BME280;43298;52.560;13.508;2024-02-15T11:58:07;99996.63;;;13.84;100.00
13734;BME280;43298;52.560;13.508;2024-02-15T12:00:34;99993.19;;;13.83;100.00
13734;BME280;43298;52.560;13.508;2024-02-15T12:03:19;99960.09;;;13.85;100.00
13734;BME280;43298;52.560;13.508;2024-02-15T12:06:04;99922.72;;;13.88;100.00
13734;BME280;43298;52.560;13.508;2024-02-15T12:08:53;99857.28;;;13.81;100.00
13734;BME280;43298;52.560;13.508;2024-02-15T12:11:38;99816.47;;;13.71;100.00
13734;BME280;43298;52.560;13.508;2024-02-15T12:14:22;99781.56;;;13.62;100.00
13734;BME280;43298;52.560;13.508;2024-02-15T12:17:09;99740.31;;;13.58;100.00
13734;BME280;43298;52.560;13.508;2024-02-15T12:19:56;99703.44;;;13.53;100.00
13734;BME280;43298;52.560;13.508;2024-02-15T12:22:26;99680.88;;;13.53;100.00
13734;BME280;43298;52.560;13.508;2024-02-15T12:24:57;99661.06;;;13.52;100.00
13734;BME280;43298;52.560;13.508;2024-02-15T12:27:24;99645.34;;;13.54;100.00
13734;BME280;43298;52.560;13.508;2024-02-15T12:30:02;99623.03;;;13.51;100.00
13734;BME280;43298;52.560;13.508;2024-02-15T12:32:31;99630.81;;;13.51;100.00
13734;BME280;43298;52.560;13.508;2024-02-15T12:35:12;99643.28;;;13.59;100.00
13734;BME280;43298;52.560;13.508;2024-02-15T12:37:43;99627.34;;;13.63;100.00
13734;BME280;43298;52.560;13.508;2024-02-15T12:40:19;99609.47;;;13.71;100.00
13734;BME280;43298;52.560;13.508;2024-02-15T12:42:47;99597.44;;;13.81;100.00
13734;BME280;43298;52.560;13.508;2024-02-15T12:45:18;99595.34;;;13.86;100.00
13734;BME280;43298;52.560;13.508;2024-02-15T12:47:50;99573.06;;;13.95;100.00
13734;BME280;43298;52.560;13.508;2024-02-15T12:50:27;99558.16;;;13.97;100.00
13734;BME280;43298;52.560;13.508;2024-02-15T12:52:54;99533.97;;;14.07;100.00
13734;BME280;43298;52.560;13.508;2024-02-15T12:55:24;99515.28;;;14.13;100.00
13734;BME280;43298;52.560;13.508;2024-02-15T12:57:52;99512.03;;;14.22;100.00
13734;BME280;43298;52.560;13.508;2024-02-15T13:00:23;99491.94;;;14.24;100.00
13734;BME280;43298;52.560;13.508;2024-02-15T13:02:55;99471.63;;;14.29;100.00
13734;BME280;43298;52.560;13.508;2024-02-15T13:05:22;99462.19;;;14.28;100.00
13734;BME280;43298;52.560;13.508;2024-02-15T13:07:51;99466.28;;;14.20;100.00